sensor_id;sensor_type;location;lat;lon;timestamp;P1;durP1;ratioP1;P2;durP2;ratioP2
70757;SDS011;59316;52.964;7.102;2022-11-20T00:00:18;34.72;;;14.52;;
70757;SDS011;59316;52.964;7.102;2022-11-20T00:05:20;36.10;;;15.07;;
70757;SDS011;59316;52.964;7.102;2022-11-20T00:10:21;31.88;;;14.07;;
70757;SDS011;59316;52.964;7.102;2022-11-20T00:15:23;31.60;;;13.30;;
70757;SDS011;59316;52.964;7.102;2022-11-20T00:20:25;29.13;;;13.05;;
70757;SDS011;59316;52.964;7.102;2022-11-20T00:25:27;30.38;;;13.02;;
70757;SDS011;59316;52.964;7.102;2022-11-20T00:30:29;29.58;;;13.77;;
70757;SDS011;59316;52.964;7.102;2022-11-20T00:35:31;31.60;;;15.15;;
70757;SDS011;59316;52.964;7.102;2022-11-20T00:40:32;37.30;;;14.90;;
70757;SDS011;59316;52.964;7.102;2022-11-20T00:45:34;37.28;;;15.40;;
70757;SDS011;59316;52.964;7.102;2022-11-20T00:50:36;34.22;;;13.90;;
70757;SDS011;59316;52.964;7.102;2022-11-20T00:55:38;31.73;;;14.00;;
70757;SDS011;59316;52.964;7.102;2022-11-20T01:00:40;31.45;;;13.80;;
70757;SDS011;59316;52.964;7.102;2022-11-20T01:05:42;27.05;;;12.60;;
70757;SDS011;59316;52.964;7.102;2022-11-20T01:10:43;30.20;;;13.90;;
70757;SDS011;59316;52.964;7.102;2022-11-20T01:15:45;30.42;;;13.88;;
70757;SDS011;59316;52.964;7.102;2022-11-20T01:20:47;33.72;;;13.38;;
70757;SDS011;59316;52.964;7.102;2022-11-20T01:25:49;33.28;;;14.88;;
70757;SDS011;59316;52.964;7.102;2022-11-20T01:30:51;31.67;;;14.77;;
70757;SDS011;59316;52.964;7.102;2022-11-20T01:35:53;30.58;;;13.98;;
70757;SDS011;59316;52.964;7.102;2022-11-20T01:40:55;27.10;;;12.82;;
70757;SDS011;59316;52.964;7.102;2022-11-20T01:51:02;34.78;;;13.70;;
70757;SDS011;59316;52.964;7.102;2022-11-20T01:56:05;38.88;;;15.05;;
70757;SDS011;59316;52.964;7.102;2022-11-20T02:01:09;35.88;;;15.60;;
70757;SDS011;59316;52.964;7.102;2022-11-20T02:06:46;35.88;;;15.38;;
70757;SDS011;59316;52.964;7.102;2022-11-20T02:11:39;33.38;;;15.40;;
70757;SDS011;59316;52.964;7.102;2022-11-20T02:16:43;35.00;;;14.80;;
70757;SDS011;59316;52.964;7.102;2022-11-20T02:21:47;35.88;;;15.63;;
70757;SDS011;59316;52.964;7.102;2022-11-20T02:26:52;33.60;;;15.27;;
70757;SDS011;59316;52.964;7.102;2022-11-20T02:31:54;35.80;;;15.55;;
70757;SDS011;59316;52.964;7.102;2022-11-20T02:36:56;35.63;;;15.27;;
70757;SDS011;59316;52.964;7.102;2022-11-20T02:42:00;37.10;;;15.07;;
70757;SDS011;59316;52.964;7.102;2022-11-20T02:47:02;33.72;;;14.77;;
70757;SDS011;59316;52.964;7.102;2022-11-20T02:52:04;32.58;;;15.13;;
70757;SDS011;59316;52.964;7.102;2022-11-20T02:57:06;31.63;;;14.05;;
70757;SDS011;59316;52.964;7.102;2022-11-20T03:02:07;32.42;;;14.35;;
70757;SDS011;59316;52.964;7.102;2022-11-20T03:07:09;30.35;;;13.60;;
70757;SDS011;59316;52.964;7.102;2022-11-20T03:12:11;29.42;;;13.32;;
70757;SDS011;59316;52.964;7.102;2022-11-20T03:17:13;25.77;;;12.63;;
70757;SDS011;59316;52.964;7.102;2022-11-20T03:22:15;31.45;;;13.93;;
70757;SDS011;59316;52.964;7.102;2022-11-20T03:27:17;29.00;;;13.63;;
70757;SDS011;59316;52.964;7.102;2022-11-20T03:32:18;23.30;;;11.63;;
70757;SDS011;59316;52.964;7.102;2022-11-20T03:37:20;28.08;;;12.25;;
70757;SDS011;59316;52.964;7.102;2022-11-20T03:42:22;24.60;;;12.02;;
70757;SDS011;59316;52.964;7.102;2022-11-20T03:47:24;24.50;;;12.60;;
70757;SDS011;59316;52.964;7.102;2022-11-20T03:52:26;28.27;;;13.25;;
70757;SDS011;59316;52.964;7.102;2022-11-20T03:57:27;27.50;;;12.25;;
70757;SDS011;59316;52.964;7.102;2022-11-20T04:02:29;27.02;;;12.52;;
70757;SDS011;59316;52.964;7.102;2022-11-20T04:07:33;24.50;;;12.27;;
70757;SDS011;59316;52.964;7.102;2022-11-20T04:12:35;27.65;;;12.63;;
70757;SDS011;59316;52.964;7.102;2022-11-20T04:17:36;26.90;;;12.40;;
70757;SDS011;59316;52.964;7.102;2022-11-20T04:22:38;28.63;;;12.93;;
70757;SDS011;59316;52.964;7.102;2022-11-20T04:27:40;25.75;;;12.38;;
70757;SDS011;59316;52.964;7.102;2022-11-20T04:32:42;20.95;;;11.20;;
70757;SDS011;59316;52.964;7.102;2022-11-20T04:37:44;22.60;;;11.18;;
70757;SDS011;59316;52.964;7.102;2022-11-20T04:42:46;21.52;;;10.90;;
70757;SDS011;59316;52.964;7.102;2022-11-20T04:47:48;23.58;;;11.60;;
70757;SDS011;59316;52.964;7.102;2022-11-20T04:52:49;22.98;;;10.98;;
70757;SDS011;59316;52.964;7.102;2022-11-20T04:57:51;23.23;;;10.90;;
70757;SDS011;59316;52.964;7.102;2022-11-20T05:02:53;21.85;;;10.55;;
70757;SDS011;59316;52.964;7.102;2022-11-20T05:07:55;23.90;;;11.15;;
70757;SDS011;59316;52.964;7.102;2022-11-20T05:12:57;22.90;;;10.90;;
70757;SDS011;59316;52.964;7.102;2022-11-20T05:23:02;23.88;;;10.05;;
70757;SDS011;59316;52.964;7.102;2022-11-20T05:28:04;22.35;;;10.50;;
70757;SDS011;59316;52.964;7.102;2022-11-20T05:33:06;26.90;;;11.20;;
70757;SDS011;59316;52.964;7.102;2022-11-20T05:38:07;19.17;;;10.05;;
70757;SDS011;59316;52.964;7.102;2022-11-20T05:43:09;20.70;;;10.57;;
70757;SDS011;59316;52.964;7.102;2022-11-20T05:48:11;24.35;;;10.40;;
70757;SDS011;59316;52.964;7.102;2022-11-20T05:53:13;24.63;;;11.13;;
70757;SDS011;59316;52.964;7.102;2022-11-20T05:58:15;23.00;;;10.35;;
70757;SDS011;59316;52.964;7.102;2022-11-20T06:03:17;22.00;;;10.25;;
70757;SDS011;59316;52.964;7.102;2022-11-20T06:08:18;22.05;;;10.65;;
70757;SDS011;59316;52.964;7.102;2022-11-20T06:13:20;22.02;;;9.98;;
70757;SDS011;59316;52.964;7.102;2022-11-20T06:18:22;22.90;;;10.75;;
70757;SDS011;59316;52.964;7.102;2022-11-20T06:23:24;20.92;;;10.15;;
70757;SDS011;59316;52.964;7.102;2022-11-20T06:28:26;19.85;;;10.27;;
70757;SDS011;59316;52.964;7.102;2022-11-20T06:33:28;21.13;;;10.60;;
70757;SDS011;59316;52.964;7.102;2022-11-20T06:38:29;22.90;;;10.48;;
70757;SDS011;59316;52.964;7.102;2022-11-20T06:43:31;20.30;;;10.27;;
70757;SDS011;59316;52.964;7.102;2022-11-20T06:48:33;24.20;;;10.77;;
70757;SDS011;59316;52.964;7.102;2022-11-20T06:53:35;23.70;;;10.93;;
70757;SDS011;59316;52.964;7.102;2022-11-20T06:58:37;19.75;;;10.27;;
70757;SDS011;59316;52.964;7.102;2022-11-20T07:03:39;20.00;;;10.60;;
70757;SDS011;59316;52.964;7.102;2022-11-20T07:08:41;21.37;;;10.57;;
70757;SDS011;59316;52.964;7.102;2022-11-20T07:13:43;21.13;;;9.75;;
70757;SDS011;59316;52.964;7.102;2022-11-20T07:18:45;19.23;;;9.68;;
70757;SDS011;59316;52.964;7.102;2022-11-20T07:23:51;19.85;;;9.50;;
70757;SDS011;59316;52.964;7.102;2022-11-20T07:28:53;19.73;;;9.70;;
70757;SDS011;59316;52.964;7.102;2022-11-20T07:33:55;20.92;;;10.55;;
70757;SDS011;59316;52.964;7.102;2022-11-20T07:38:57;20.77;;;9.82;;
70757;SDS011;59316;52.964;7.102;2022-11-20T07:43:59;20.58;;;9.32;;
70757;SDS011;59316;52.964;7.102;2022-11-20T07:49:00;19.95;;;10.45;;
70757;SDS011;59316;52.964;7.102;2022-11-20T07:54:02;21.48;;;9.60;;
70757;SDS011;59316;52.964;7.102;2022-11-20T07:59:04;16.48;;;8.70;;
70757;SDS011;59316;52.964;7.102;2022-11-20T08:04:06;16.67;;;8.90;;
70757;SDS011;59316;52.964;7.102;2022-11-20T08:09:08;18.50;;;9.05;;
70757;SDS011;59316;52.964;7.102;2022-11-20T08:14:09;16.75;;;8.02;;
70757;SDS011;59316;52.964;7.102;2022-11-20T08:19:12;14.13;;;7.57;;
70757;SDS011;59316;52.964;7.102;2022-11-20T08:24:14;17.20;;;8.18;;
70757;SDS011;59316;52.964;7.102;2022-11-20T08:29:16;19.30;;;8.35;;
70757;SDS011;59316;52.964;7.102;2022-11-20T08:34:17;18.50;;;8.65;;
70757;SDS011;59316;52.964;7.102;2022-11-20T08:39:20;19.45;;;8.57;;
70757;SDS011;59316;52.964;7.102;2022-11-20T08:44:22;17.33;;;8.40;;
70757;SDS011;59316;52.964;7.102;2022-11-20T08:49:24;19.67;;;8.00;;
70757;SDS011;59316;52.964;7.102;2022-11-20T08:54:26;15.40;;;7.40;;
70757;SDS011;59316;52.964;7.102;2022-11-20T08:59:27;17.25;;;8.02;;
70757;SDS011;59316;52.964;7.102;2022-11-20T09:04:49;16.23;;;7.95;;
70757;SDS011;59316;52.964;7.102;2022-11-20T09:09:51;14.27;;;7.22;;
70757;SDS011;59316;52.964;7.102;2022-11-20T09:15:13;19.48;;;8.20;;
70757;SDS011;59316;52.964;7.102;2022-11-20T09:20:15;14.38;;;7.50;;
70757;SDS011;59316;52.964;7.102;2022-11-20T09:25:17;14.07;;;7.47;;
70757;SDS011;59316;52.964;7.102;2022-11-20T09:30:18;15.93;;;7.82;;
70757;SDS011;59316;52.964;7.102;2022-11-20T09:35:20;16.30;;;8.15;;
70757;SDS011;59316;52.964;7.102;2022-11-20T09:40:24;14.32;;;7.25;;
70757;SDS011;59316;52.964;7.102;2022-11-20T09:50:54;17.52;;;7.90;;
70757;SDS011;59316;52.964;7.102;2022-11-20T09:55:54;14.57;;;7.65;;
70757;SDS011;59316;52.964;7.102;2022-11-20T10:00:56;14.10;;;7.05;;
70757;SDS011;59316;52.964;7.102;2022-11-20T10:06:01;12.15;;;7.13;;
70757;SDS011;59316;52.964;7.102;2022-11-20T10:11:14;15.77;;;7.30;;
70757;SDS011;59316;52.964;7.102;2022-11-20T10:31:55;16.73;;;8.25;;
70757;SDS011;59316;52.964;7.102;2022-11-20T10:37:02;13.45;;;8.00;;
70757;SDS011;59316;52.964;7.102;2022-11-20T10:42:14;16.35;;;7.82;;
70757;SDS011;59316;52.964;7.102;2022-11-20T10:47:18;13.95;;;7.00;;
70757;SDS011;59316;52.964;7.102;2022-11-20T10:52:32;12.07;;;6.53;;
70757;SDS011;59316;52.964;7.102;2022-11-20T11:02:50;14.75;;;7.22;;
70757;SDS011;59316;52.964;7.102;2022-11-20T11:07:55;13.45;;;7.43;;
70757;SDS011;59316;52.964;7.102;2022-11-20T11:12:57;11.85;;;6.82;;
70757;SDS011;59316;52.964;7.102;2022-11-20T11:17:59;12.93;;;7.20;;
70757;SDS011;59316;52.964;7.102;2022-11-20T11:23:01;15.82;;;7.20;;
70757;SDS011;59316;52.964;7.102;2022-11-20T11:33:30;14.15;;;6.85;;
70757;SDS011;59316;52.964;7.102;2022-11-20T11:43:34;13.27;;;7.10;;
70757;SDS011;59316;52.964;7.102;2022-11-20T11:48:38;14.15;;;7.22;;
70757;SDS011;59316;52.964;7.102;2022-11-20T11:53:40;11.60;;;6.50;;
70757;SDS011;59316;52.964;7.102;2022-11-20T11:58:46;12.63;;;6.35;;
70757;SDS011;59316;52.964;7.102;2022-11-20T12:03:52;10.93;;;5.97;;
70757;SDS011;59316;52.964;7.102;2022-11-20T12:09:08;9.65;;;5.65;;
70757;SDS011;59316;52.964;7.102;2022-11-20T12:19:12;11.30;;;6.55;;
70757;SDS011;59316;52.964;7.102;2022-11-20T12:39:40;15.00;;;8.25;;
70757;SDS011;59316;52.964;7.102;2022-11-20T12:55:11;10.30;;;6.20;;
70757;SDS011;59316;52.964;7.102;2022-11-20T13:00:25;11.20;;;5.63;;
70757;SDS011;59316;52.964;7.102;2022-11-20T13:05:37;10.67;;;6.13;;
70757;SDS011;59316;52.964;7.102;2022-11-20T13:10:49;12.60;;;6.50;;
70757;SDS011;59316;52.964;7.102;2022-11-20T13:16:00;11.20;;;6.30;;
70757;SDS011;59316;52.964;7.102;2022-11-20T13:21:13;10.68;;;5.75;;
70757;SDS011;59316;52.964;7.102;2022-11-20T13:26:24;14.05;;;6.10;;
70757;SDS011;59316;52.964;7.102;2022-11-20T13:31:28;12.20;;;6.25;;
70757;SDS011;59316;52.964;7.102;2022-11-20T13:36:31;10.23;;;5.63;;
70757;SDS011;59316;52.964;7.102;2022-11-20T13:41:36;12.95;;;6.50;;
70757;SDS011;59316;52.964;7.102;2022-11-20T13:46:42;12.70;;;6.28;;
70757;SDS011;59316;52.964;7.102;2022-11-20T13:51:46;12.13;;;6.57;;
70757;SDS011;59316;52.964;7.102;2022-11-20T14:02:18;9.57;;;5.75;;
70757;SDS011;59316;52.964;7.102;2022-11-20T14:07:21;11.52;;;5.82;;
70757;SDS011;59316;52.964;7.102;2022-11-20T14:12:29;14.77;;;6.60;;
70757;SDS011;59316;52.964;7.102;2022-11-20T14:17:32;11.52;;;5.72;;
70757;SDS011;59316;52.964;7.102;2022-11-20T14:22:34;11.07;;;5.97;;
70757;SDS011;59316;52.964;7.102;2022-11-20T14:27:37;11.98;;;5.95;;
70757;SDS011;59316;52.964;7.102;2022-11-20T14:32:39;12.30;;;6.57;;
70757;SDS011;59316;52.964;7.102;2022-11-20T14:37:42;12.70;;;7.30;;
70757;SDS011;59316;52.964;7.102;2022-11-20T14:42:44;12.80;;;6.78;;
70757;SDS011;59316;52.964;7.102;2022-11-20T14:47:46;12.60;;;6.40;;
70757;SDS011;59316;52.964;7.102;2022-11-20T14:52:55;14.73;;;7.28;;
70757;SDS011;59316;52.964;7.102;2022-11-20T14:58:20;14.68;;;7.10;;
70757;SDS011;59316;52.964;7.102;2022-11-20T15:03:19;14.35;;;7.32;;
70757;SDS011;59316;52.964;7.102;2022-11-20T15:08:21;15.70;;;7.20;;
70757;SDS011;59316;52.964;7.102;2022-11-20T15:13:24;16.65;;;7.97;;
70757;SDS011;59316;52.964;7.102;2022-11-20T15:18:28;13.40;;;7.20;;
70757;SDS011;59316;52.964;7.102;2022-11-20T15:23:31;12.80;;;7.15;;
70757;SDS011;59316;52.964;7.102;2022-11-20T15:28:33;12.93;;;7.55;;
70757;SDS011;59316;52.964;7.102;2022-11-20T15:33:36;15.13;;;7.90;;
70757;SDS011;59316;52.964;7.102;2022-11-20T15:38:37;15.98;;;7.70;;
70757;SDS011;59316;52.964;7.102;2022-11-20T15:43:39;18.77;;;8.00;;
70757;SDS011;59316;52.964;7.102;2022-11-20T15:48:42;15.77;;;8.27;;
70757;SDS011;59316;52.964;7.102;2022-11-20T15:53:49;18.00;;;8.30;;
70757;SDS011;59316;52.964;7.102;2022-11-20T15:58:51;15.02;;;7.68;;
70757;SDS011;59316;52.964;7.102;2022-11-20T16:03:52;17.33;;;7.90;;
70757;SDS011;59316;52.964;7.102;2022-11-20T16:08:54;18.38;;;7.53;;
70757;SDS011;59316;52.964;7.102;2022-11-20T16:13:56;14.00;;;8.27;;
70757;SDS011;59316;52.964;7.102;2022-11-20T16:18:58;12.73;;;7.20;;
70757;SDS011;59316;52.964;7.102;2022-11-20T16:24:01;14.02;;;7.97;;
70757;SDS011;59316;52.964;7.102;2022-11-20T16:34:06;14.25;;;7.15;;
70757;SDS011;59316;52.964;7.102;2022-11-20T16:39:24;15.95;;;7.57;;
70757;SDS011;59316;52.964;7.102;2022-11-20T16:44:26;19.00;;;8.05;;
70757;SDS011;59316;52.964;7.102;2022-11-20T16:49:28;15.30;;;8.23;;
70757;SDS011;59316;52.964;7.102;2022-11-20T16:54:30;15.20;;;8.18;;
70757;SDS011;59316;52.964;7.102;2022-11-20T16:59:32;14.23;;;8.43;;
70757;SDS011;59316;52.964;7.102;2022-11-20T17:04:33;18.75;;;10.10;;
70757;SDS011;59316;52.964;7.102;2022-11-20T17:09:35;16.77;;;9.00;;
70757;SDS011;59316;52.964;7.102;2022-11-20T17:14:37;14.85;;;8.63;;
70757;SDS011;59316;52.964;7.102;2022-11-20T17:19:39;21.83;;;9.57;;
70757;SDS011;59316;52.964;7.102;2022-11-20T17:24:41;18.08;;;9.20;;
70757;SDS011;59316;52.964;7.102;2022-11-20T17:29:42;21.50;;;9.43;;
70757;SDS011;59316;52.964;7.102;2022-11-20T17:34:44;19.42;;;9.90;;
70757;SDS011;59316;52.964;7.102;2022-11-20T17:39:46;19.20;;;9.55;;
70757;SDS011;59316;52.964;7.102;2022-11-20T17:44:48;18.08;;;8.52;;
70757;SDS011;59316;52.964;7.102;2022-11-20T17:49:50;20.45;;;9.93;;
70757;SDS011;59316;52.964;7.102;2022-11-20T17:54:52;20.08;;;9.45;;
70757;SDS011;59316;52.964;7.102;2022-11-20T17:59:54;23.52;;;9.85;;
70757;SDS011;59316;52.964;7.102;2022-11-20T18:04:55;20.23;;;9.60;;
70757;SDS011;59316;52.964;7.102;2022-11-20T18:09:57;18.23;;;9.43;;
70757;SDS011;59316;52.964;7.102;2022-11-20T18:14:59;22.42;;;10.00;;
70757;SDS011;59316;52.964;7.102;2022-11-20T18:20:01;19.42;;;9.32;;
70757;SDS011;59316;52.964;7.102;2022-11-20T18:25:23;20.98;;;9.73;;
70757;SDS011;59316;52.964;7.102;2022-11-20T18:30:24;22.17;;;9.98;;
70757;SDS011;59316;52.964;7.102;2022-11-20T18:35:26;19.02;;;10.07;;
70757;SDS011;59316;52.964;7.102;2022-11-20T18:40:28;20.25;;;9.82;;
70757;SDS011;59316;52.964;7.102;2022-11-20T18:45:30;24.30;;;9.95;;
70757;SDS011;59316;52.964;7.102;2022-11-20T18:50:32;23.17;;;10.32;;
70757;SDS011;59316;52.964;7.102;2022-11-20T18:55:34;24.52;;;10.52;;
70757;SDS011;59316;52.964;7.102;2022-11-20T19:00:36;18.00;;;9.43;;
70757;SDS011;59316;52.964;7.102;2022-11-20T19:05:38;23.50;;;10.52;;
70757;SDS011;59316;52.964;7.102;2022-11-20T19:10:40;20.52;;;10.32;;
70757;SDS011;59316;52.964;7.102;2022-11-20T19:15:41;22.85;;;10.75;;
70757;SDS011;59316;52.964;7.102;2022-11-20T19:20:43;24.30;;;10.85;;
70757;SDS011;59316;52.964;7.102;2022-11-20T19:25:45;21.83;;;10.43;;
70757;SDS011;59316;52.964;7.102;2022-11-20T19:30:47;25.33;;;10.38;;
70757;SDS011;59316;52.964;7.102;2022-11-20T19:35:49;19.95;;;9.73;;
70757;SDS011;59316;52.964;7.102;2022-11-20T19:40:51;22.15;;;11.05;;
70757;SDS011;59316;52.964;7.102;2022-11-20T19:45:52;24.95;;;10.68;;
70757;SDS011;59316;52.964;7.102;2022-11-20T19:50:54;22.25;;;10.75;;
70757;SDS011;59316;52.964;7.102;2022-11-20T19:55:56;24.27;;;11.75;;
70757;SDS011;59316;52.964;7.102;2022-11-20T20:01:08;24.83;;;11.20;;
70757;SDS011;59316;52.964;7.102;2022-11-20T20:06:15;25.95;;;11.88;;
70757;SDS011;59316;52.964;7.102;2022-11-20T20:11:18;23.75;;;11.10;;
70757;SDS011;59316;52.964;7.102;2022-11-20T20:16:21;23.33;;;11.05;;
70757;SDS011;59316;52.964;7.102;2022-11-20T20:21:23;20.55;;;10.18;;
70757;SDS011;59316;52.964;7.102;2022-11-20T20:26:26;26.52;;;10.70;;
70757;SDS011;59316;52.964;7.102;2022-11-20T20:31:29;23.35;;;10.30;;
70757;SDS011;59316;52.964;7.102;2022-11-20T20:41:33;26.63;;;11.98;;
70757;SDS011;59316;52.964;7.102;2022-11-20T20:46:35;27.52;;;11.73;;
70757;SDS011;59316;52.964;7.102;2022-11-20T20:51:37;22.90;;;10.98;;
70757;SDS011;59316;52.964;7.102;2022-11-20T20:56:39;26.08;;;11.52;;
70757;SDS011;59316;52.964;7.102;2022-11-20T21:01:40;23.08;;;10.68;;
70757;SDS011;59316;52.964;7.102;2022-11-20T21:06:42;24.60;;;11.65;;
70757;SDS011;59316;52.964;7.102;2022-11-20T21:11:44;22.23;;;11.18;;
70757;SDS011;59316;52.964;7.102;2022-11-20T21:16:47;23.90;;;10.77;;
70757;SDS011;59316;52.964;7.102;2022-11-20T21:21:49;20.05;;;11.23;;
70757;SDS011;59316;52.964;7.102;2022-11-20T21:26:51;23.67;;;12.20;;
70757;SDS011;59316;52.964;7.102;2022-11-20T21:31:53;26.27;;;10.65;;
70757;SDS011;59316;52.964;7.102;2022-11-20T21:36:55;26.00;;;12.00;;
70757;SDS011;59316;52.964;7.102;2022-11-20T21:41:57;27.08;;;12.30;;
70757;SDS011;59316;52.964;7.102;2022-11-20T21:46:59;23.88;;;11.63;;
70757;SDS011;59316;52.964;7.102;2022-11-20T21:52:00;27.63;;;12.20;;
70757;SDS011;59316;52.964;7.102;2022-11-20T21:57:02;25.35;;;12.70;;
70757;SDS011;59316;52.964;7.102;2022-11-20T22:02:04;30.23;;;13.75;;
70757;SDS011;59316;52.964;7.102;2022-11-20T22:07:06;27.30;;;13.10;;
70757;SDS011;59316;52.964;7.102;2022-11-20T22:12:08;30.20;;;13.03;;
70757;SDS011;59316;52.964;7.102;2022-11-20T22:17:11;27.50;;;12.47;;
70757;SDS011;59316;52.964;7.102;2022-11-20T22:22:13;23.75;;;12.43;;
70757;SDS011;59316;52.964;7.102;2022-11-20T22:27:15;22.55;;;12.10;;
70757;SDS011;59316;52.964;7.102;2022-11-20T22:32:17;28.13;;;12.30;;
70757;SDS011;59316;52.964;7.102;2022-11-20T22:37:19;25.67;;;12.23;;
70757;SDS011;59316;52.964;7.102;2022-11-20T22:42:21;23.08;;;11.73;;
70757;SDS011;59316;52.964;7.102;2022-11-20T22:47:23;22.92;;;11.02;;
70757;SDS011;59316;52.964;7.102;2022-11-20T22:52:25;24.17;;;11.23;;
70757;SDS011;59316;52.964;7.102;2022-11-20T22:57:26;26.23;;;12.07;;
70757;SDS011;59316;52.964;7.102;2022-11-20T23:02:28;28.80;;;12.52;;
70757;SDS011;59316;52.964;7.102;2022-11-20T23:07:30;23.73;;;12.40;;
70757;SDS011;59316;52.964;7.102;2022-11-20T23:12:36;25.23;;;12.20;;
70757;SDS011;59316;52.964;7.102;2022-11-20T23:17:38;23.67;;;12.15;;
70757;SDS011;59316;52.964;7.102;2022-11-20T23:22:40;27.67;;;13.40;;
70757;SDS011;59316;52.964;7.102;2022-11-20T23:27:42;29.30;;;12.38;;
70757;SDS011;59316;52.964;7.102;2022-11-20T23:32:44;26.80;;;12.13;;
70757;SDS011;59316;52.964;7.102;2022-11-20T23:37:45;24.60;;;12.45;;
70757;SDS011;59316;52.964;7.102;2022-11-20T23:42:47;25.25;;;11.88;;
70757;SDS011;59316;52.964;7.102;2022-11-20T23:47:49;26.52;;;12.63;;
70757;SDS011;59316;52.964;7.102;2022-11-20T23:52:51;28.10;;;12.75;;
70757;SDS011;59316;52.964;7.102;2022-11-20T23:57:53;25.02;;;11.43;;
